Bluff Springs, Illinois
Current Conditions -  °F | °C
As of 4:35 AM on Sunday 21 Dec 2014 (Local Time) from KIJX Reporting Station
Overcast Overcast  
Wind Chill: 35°   Ceiling: 2800
Heat Index: 40°   Visibility: 10mi
Dew Point: 34°   Wind: 7mph
Humidity: 82%   Direction: 160°SSE
Pressure: 30.18"   Gusts: NA
Location:  39.99°N, 90.35°W
Report Text: KIJX 211035Z AUTO 16006KT 10SM OVC028 04/01 A3018 RMK AO2 T00420013
Loading
Personal Weather Stations






























Interactive Weather Map New forecast layout! Learn more

10-Day Weather Forecast

Advertisements
Track Severe Weather on mobile